Time;durP1;ratioP1;P1;durP2;ratioP2;P2;SDS_P1;SDS_P2;PMS_P1;PMS_P2;Temp;Humidity;BMP_temperature;BMP_pressure;BME280_temperature;BME280_humidity;BME280_pressure;Samples;Min_cycle;Max_cycle;Signal;HPM_P1;HPM_P2
2023/12/18 00:02:10;;;;;;;1.00;0.90;;;;;;;-145.69;56.03;52402.78;4937127;29;20234;-80
2023/12/18 00:04:37;;;;;;;0.60;0.60;;;;;;;-145.69;55.91;52337.44;4937232;29;20211;-80
2023/12/18 00:07:04;;;;;;;0.70;0.70;;;;;;;-145.69;56.17;52369.13;4919950;29;20207;-79
2023/12/18 00:09:31;;;;;;;0.70;0.70;;;;;;;-145.69;55.64;52392.91;4936635;29;20722;-79
2023/12/18 00:11:57;;;;;;;0.80;0.80;;;;;;;-145.69;55.04;52394.88;4919758;29;20266;-80
2023/12/18 00:14:24;;;;;;;0.77;0.77;;;;;;;-145.69;54.91;52390.91;4920217;29;20211;-80
2023/12/18 00:16:50;;;;;;;0.77;0.70;;;;;;;-145.69;54.83;52404.78;4936812;29;20207;-80
2023/12/18 00:19:17;;;;;;;0.90;0.90;;;;;;;-145.69;55.46;52392.91;4936556;29;20567;-81
2023/12/18 00:21:44;;;;;;;0.70;0.70;;;;;;;-145.69;54.91;52388.94;4936528;29;20227;-80
2023/12/18 00:24:11;;;;;;;0.60;0.60;;;;;;;-145.69;55.09;52361.22;4919547;29;20242;-79
2023/12/18 00:26:37;;;;;;;0.70;0.70;;;;;;;-145.69;55.58;52412.69;4936867;29;20207;-80
2023/12/18 00:29:04;;;;;;;0.50;0.50;;;;;;;-145.69;55.04;52355.28;4936331;29;20203;-81
2023/12/18 00:31:31;;;;;;;2.37;0.80;;;;;;;-145.69;54.73;52373.09;4936742;29;20211;-81
2023/12/18 00:33:57;;;;;;;0.80;0.80;;;;;;;-145.69;54.31;52381.00;4936549;29;20288;-80
2023/12/18 00:36:24;;;;;;;0.80;0.80;;;;;;;-145.69;54.80;52333.47;4936539;29;20204;-82
2023/12/18 00:38:52;;;;;;;0.67;0.60;;;;;;;-145.69;55.19;52402.78;4936206;29;20670;-81
2023/12/18 00:41:19;;;;;;;0.60;0.60;;;;;;;-145.69;55.37;52394.88;4936688;29;20199;-81
2023/12/18 00:43:45;;;;;;;0.70;0.70;;;;;;;-145.69;55.25;52349.31;4936382;29;20227;-80
2023/12/18 00:46:12;;;;;;;0.80;0.60;;;;;;;-145.69;56.07;52381.00;4936274;29;20206;-80
2023/12/18 00:48:38;;;;;;;0.80;0.80;;;;;;;-145.69;55.73;52365.16;4936212;29;20785;-80
2023/12/18 00:51:05;;;;;;;1.27;0.73;;;;;;;-145.69;56.68;52396.84;4936366;29;20204;-79
2023/12/18 00:53:31;;;;;;;1.17;0.70;;;;;;;-145.69;56.57;52390.91;4935794;29;20265;-79
2023/12/18 00:55:59;;;;;;;0.73;0.73;;;;;;;-145.69;56.79;52396.84;4936411;29;20204;-80
2023/12/18 00:58:26;;;;;;;0.70;0.70;;;;;;;-145.69;56.98;52430.53;4936058;29;20210;-80
2023/12/18 01:00:52;;;;;;;0.80;0.80;;;;;;;-145.69;56.85;52384.97;4935929;29;20234;-80
2023/12/18 01:03:18;;;;;;;0.87;0.73;;;;;;;-145.69;57.59;52377.06;4935935;29;20238;-80
2023/12/18 01:05:45;;;;;;;0.60;0.60;;;;;;;-145.69;56.90;52412.69;4935783;29;20204;-80
2023/12/18 01:08:12;;;;;;;1.47;1.00;;;;;;;-145.69;57.27;52416.66;4935030;29;20202;-80
2023/12/18 01:10:39;;;;;;;0.73;0.60;;;;;;;-145.69;57.23;52353.28;4936034;29;20210;-79
2023/12/18 01:13:07;;;;;;;0.67;0.67;;;;;;;-145.69;57.81;52388.94;4935712;29;20704;-80
2023/12/18 01:15:33;;;;;;;0.70;0.70;;;;;;;-145.69;57.83;52377.06;4935215;29;20199;-80
2023/12/18 01:17:59;;;;;;;0.83;0.83;;;;;;;-145.69;58.23;52369.13;4935529;29;20200;-80
2023/12/18 01:20:26;;;;;;;0.63;0.63;;;;;;;-145.69;58.13;52390.91;4935390;29;20207;-79
2023/12/18 01:22:52;;;;;;;0.90;0.90;;;;;;;-145.69;58.33;52369.13;4935644;29;20242;-80
2023/12/18 01:25:19;;;;;;;0.70;0.70;;;;;;;-145.69;59.09;52410.72;4935918;29;20213;-80
2023/12/18 01:27:45;;;;;;;0.80;0.80;;;;;;;-145.69;60.24;52386.97;4935750;29;20203;-80
2023/12/18 01:30:13;;;;;;;0.70;0.70;;;;;;;-145.69;61.37;52392.91;4935450;29;20200;-80
2023/12/18 01:32:40;;;;;;;1.23;0.67;;;;;;;-145.69;60.65;52373.09;4934575;29;20258;-79
2023/12/18 01:35:07;;;;;;;1.63;0.70;;;;;;;-145.69;60.80;52381.00;4935424;29;20254;-80
2023/12/18 01:37:33;;;;;;;0.67;0.67;;;;;;;-145.69;60.67;52400.81;4936179;29;20567;-79
2023/12/18 01:40:00;;;;;;;0.60;0.60;;;;;;;-145.69;61.21;52410.72;4935494;29;20607;-79
2023/12/18 01:42:27;;;;;;;0.80;0.80;;;;;;;-145.69;60.76;52412.69;4919634;29;20322;-79
2023/12/18 01:44:53;;;;;;;0.60;0.60;;;;;;;-145.69;61.76;52369.13;4899693;29;20260;-80
2023/12/18 01:47:22;;;;;;;0.67;0.60;;;;;;;-145.69;61.48;52386.97;4916710;29;20541;-80
2023/12/18 01:49:50;;;;;;;0.83;0.67;;;;;;;-145.69;61.80;52430.53;4925452;29;20653;-80
2023/12/18 01:52:18;;;;;;;0.83;0.80;;;;;;;-145.69;62.24;52345.38;4935561;29;20199;-79
2023/12/18 01:54:45;;;;;;;1.23;0.70;;;;;;;-145.69;62.60;52381.00;4935796;29;20239;-80
2023/12/18 01:57:15;;;;;;;0.87;0.87;;;;;;;-145.69;61.79;52414.69;4934937;29;20208;-80
2023/12/18 01:59:41;;;;;;;2.00;1.00;;;;;;;-145.69;61.89;52381.00;4935281;29;20567;-80
2023/12/18 02:02:08;;;;;;;1.83;1.00;;;;;;;-145.69;62.37;52345.38;4935269;29;20211;-80
2023/12/18 02:04:37;;;;;;;1.10;0.90;;;;;;;-145.69;62.25;52400.81;4935306;29;20207;-80
2023/12/18 02:07:06;;;;;;;0.90;0.90;;;;;;;-145.69;62.98;52377.06;4935303;29;20682;-79
2023/12/18 02:09:32;;;;;;;1.07;0.90;;;;;;;-145.69;63.71;52402.78;4935175;29;20373;-81
2023/12/18 02:11:59;;;;;;;2.57;0.90;;;;;;;-145.69;63.44;52424.59;4935273;29;20225;-80
2023/12/18 02:14:25;;;;;;;0.60;0.60;;;;;;;-145.69;63.69;52400.81;4935404;29;20218;-80
2023/12/18 02:16:52;;;;;;;0.63;0.60;;;;;;;-145.69;64.40;52414.69;4934933;29;20216;-79
2023/12/18 02:19:23;;;;;;;0.70;0.70;;;;;;;-145.69;63.88;52363.19;4935676;29;20240;-80
2023/12/18 02:21:51;;;;;;;1.07;0.97;;;;;;;-145.69;64.63;52379.03;4935446;29;20199;-80
2023/12/18 02:24:19;;;;;;;0.70;0.70;;;;;;;-145.69;64.81;52388.94;4935199;29;20267;-80
2023/12/18 02:26:46;;;;;;;0.73;0.73;;;;;;;-145.69;65.61;52412.69;4935295;29;20259;-79
2023/12/18 02:29:12;;;;;;;0.70;0.70;;;;;;;-145.69;65.75;52392.91;4935239;29;20211;-79
2023/12/18 02:31:40;;;;;;;0.70;0.70;;;;;;;-145.69;66.00;52390.91;4934997;29;20258;-80
2023/12/18 02:34:06;;;;;;;0.50;0.50;;;;;;;-145.69;66.30;52396.84;4938575;29;20614;-80
2023/12/18 02:36:33;;;;;;;0.60;0.60;;;;;;;-145.69;65.63;52418.63;4938839;29;20210;-80
2023/12/18 02:38:59;;;;;;;3.07;0.87;;;;;;;-145.69;65.22;52420.63;4937974;29;20211;-79
2023/12/18 02:41:27;;;;;;;0.70;0.70;;;;;;;-145.69;64.41;52384.97;4938670;29;20207;-80
2023/12/18 02:43:54;;;;;;;0.77;0.70;;;;;;;-145.69;64.19;52394.88;4938375;29;20239;-80
2023/12/18 02:46:20;;;;;;;0.80;0.80;;;;;;;-145.69;63.01;52386.97;4938387;29;20255;-80
2023/12/18 02:48:47;;;;;;;0.70;0.70;;;;;;;-145.69;63.05;52422.59;4938606;29;20211;-80
2023/12/18 02:51:13;;;;;;;0.70;0.70;;;;;;;-145.69;62.82;52416.66;4938532;29;20204;-79
2023/12/18 02:53:39;;;;;;;0.70;0.70;;;;;;;-145.69;62.82;52400.81;4938418;29;20563;-80
2023/12/18 02:56:07;;;;;;;2.93;0.63;;;;;;;-145.69;62.97;52402.78;4938008;29;20199;-80
2023/12/18 02:58:35;;;;;;;0.73;0.70;;;;;;;-145.69;63.22;52404.78;4938259;29;20207;-80
2023/12/18 03:01:01;;;;;;;0.87;0.67;;;;;;;-145.69;62.87;52424.59;4937666;29;20263;-80
2023/12/18 03:03:27;;;;;;;0.70;0.70;;;;;;;-145.69;62.22;52412.69;4937843;29;20234;-79
2023/12/18 03:05:54;;;;;;;0.70;0.70;;;;;;;-145.69;61.49;52414.69;4937532;29;20670;-79
2023/12/18 03:08:20;;;;;;;1.90;0.80;;;;;;;-145.69;61.55;52396.84;4937797;29;20239;-80
2023/12/18 03:10:47;;;;;;;0.60;0.60;;;;;;;-145.69;61.02;52394.88;4937975;29;20200;-80
2023/12/18 03:13:13;;;;;;;0.87;0.73;;;;;;;-145.69;60.31;52379.03;4937884;29;20345;-80
2023/12/18 03:15:41;;;;;;;0.70;0.70;;;;;;;-145.69;60.45;52410.72;4938137;29;20211;-79
2023/12/18 03:18:08;;;;;;;1.80;0.60;;;;;;;-145.69;59.55;52396.84;4937597;29;20262;-80
2023/12/18 03:20:34;;;;;;;0.70;0.70;;;;;;;-145.69;59.81;52406.75;4937991;29;20203;-80
2023/12/18 03:23:01;;;;;;;1.43;0.70;;;;;;;-145.69;59.65;52408.75;4937660;29;20282;-80
2023/12/18 03:25:27;;;;;;;1.27;0.73;;;;;;;-145.69;59.90;52432.50;4937841;29;20210;-80
2023/12/18 03:27:53;;;;;;;0.70;0.70;;;;;;;-145.69;59.62;52381.00;4937667;29;20204;-79
2023/12/18 03:30:20;;;;;;;0.87;0.70;;;;;;;-145.69;60.50;52396.84;4937145;29;20239;-81
2023/12/18 03:32:48;;;;;;;0.83;0.67;;;;;;;-145.69;60.83;52384.97;4937813;29;20215;-80
2023/12/18 03:35:14;;;;;;;1.00;0.90;;;;;;;-145.69;61.10;52408.75;4934517;29;20564;-80
2023/12/18 03:37:41;;;;;;;0.60;0.60;;;;;;;-145.69;61.79;52406.75;4937246;29;20199;-80
2023/12/18 03:40:08;;;;;;;0.80;0.70;;;;;;;-145.69;61.92;52402.78;4937408;29;20208;-81
2023/12/18 03:42:35;;;;;;;0.70;0.70;;;;;;;-145.69;61.84;52388.94;4937568;29;20215;-80
2023/12/18 03:45:01;;;;;;;6.80;0.70;;;;;;;-145.69;61.62;52369.13;4935980;29;20199;-80
2023/12/18 03:47:28;;;;;;;0.50;0.50;;;;;;;-145.69;60.84;52398.84;4937429;29;20203;-80
2023/12/18 03:49:56;;;;;;;0.60;0.60;;;;;;;-145.69;60.28;52408.75;4937394;29;20199;-81
2023/12/18 03:52:22;;;;;;;0.73;0.73;;;;;;;-145.69;61.09;52388.94;4936947;29;20203;-80
2023/12/18 03:54:48;;;;;;;0.60;0.60;;;;;;;-145.69;60.68;52408.75;4937052;29;20222;-80
2023/12/18 03:57:15;;;;;;;0.60;0.60;;;;;;;-145.69;60.37;52394.88;4937373;29;20207;-80
2023/12/18 03:59:41;;;;;;;0.63;0.63;;;;;;;-145.69;59.71;52418.63;4936831;29;20208;-80
2023/12/18 04:02:08;;;;;;;0.80;0.80;;;;;;;-145.69;59.16;52420.63;4937238;29;20525;-80
2023/12/18 04:04:34;;;;;;;0.60;0.60;;;;;;;-145.69;59.41;52412.69;4936960;29;20259;-79
2023/12/18 04:07:02;;;;;;;0.73;0.73;;;;;;;-145.69;59.11;52404.78;4936606;29;20199;-80
2023/12/18 04:09:28;;;;;;;0.70;0.70;;;;;;;-145.69;59.27;52396.84;4936582;29;20295;-80
2023/12/18 04:11:55;;;;;;;0.77;0.70;;;;;;;-145.69;58.75;52361.22;4937131;29;20207;-79
2023/12/18 04:14:22;;;;;;;0.70;0.70;;;;;;;-145.69;58.43;52404.78;4936963;29;20214;-80
2023/12/18 04:16:48;;;;;;;0.77;0.77;;;;;;;-145.69;58.52;52353.28;4937005;29;20207;-80
2023/12/18 04:19:14;;;;;;;1.73;0.77;;;;;;;-145.69;58.64;52392.91;4936968;29;20215;-81
2023/12/18 04:21:41;;;;;;;0.80;0.80;;;;;;;-145.69;59.29;52396.84;4936712;29;20203;-81
2023/12/18 04:24:09;;;;;;;0.80;0.80;;;;;;;-145.69;59.30;52392.91;4936641;29;20777;-80
2023/12/18 04:26:35;;;;;;;0.70;0.70;;;;;;;-145.69;59.59;52398.84;4936487;29;20203;-82
2023/12/18 04:29:02;;;;;;;0.70;0.70;;;;;;;-145.69;59.72;52396.84;4936778;29;20199;-80
2023/12/18 04:31:28;;;;;;;0.60;0.60;;;;;;;-145.69;59.60;52396.84;4936395;29;20242;-81
2023/12/18 04:33:55;;;;;;;0.80;0.80;;;;;;;-145.69;59.49;52408.75;4936237;29;20208;-81
2023/12/18 04:36:21;;;;;;;0.60;0.60;;;;;;;-145.69;59.65;52381.00;4936535;29;20259;-81
2023/12/18 04:38:48;;;;;;;0.70;0.70;;;;;;;-145.69;59.71;52440.44;4936241;29;20208;-82
2023/12/18 04:41:20;;;;;;;0.50;0.50;;;;;;;-145.69;59.85;52394.88;4936507;29;20211;-81
2023/12/18 04:43:46;;;;;;;0.70;0.70;;;;;;;-145.69;60.11;52398.84;4936096;29;20231;-78
2023/12/18 04:46:13;;;;;;;0.60;0.60;;;;;;;-145.69;60.19;52420.63;4936386;29;20247;-79
2023/12/18 04:48:39;;;;;;;0.80;0.80;;;;;;;-145.69;59.69;52375.06;4936356;29;20299;-80
2023/12/18 04:51:06;;;;;;;0.60;0.60;;;;;;;-145.69;59.13;52388.94;4936175;29;20206;-78
2023/12/18 04:53:33;;;;;;;1.00;0.70;;;;;;;-145.69;59.23;52412.69;4936457;29;20668;-79
2023/12/18 04:56:00;;;;;;;0.60;0.60;;;;;;;-145.69;58.99;52363.19;4935424;29;20211;-79
2023/12/18 04:58:28;;;;;;;1.20;0.67;;;;;;;-145.69;58.46;52347.34;4936186;29;20199;-81
2023/12/18 05:00:54;;;;;;;0.70;0.70;;;;;;;-145.69;58.28;52426.56;4936014;29;20203;-79
2023/12/18 05:03:20;;;;;;;0.70;0.70;;;;;;;-145.69;58.07;52388.94;4935942;29;20235;-79
2023/12/18 05:05:47;;;;;;;1.07;0.70;;;;;;;-145.69;57.40;52396.84;4936023;29;20216;-81
2023/12/18 05:08:13;;;;;;;0.60;0.60;;;;;;;-145.69;56.69;52418.63;4935691;29;20233;-79
2023/12/18 05:10:40;;;;;;;0.60;0.60;;;;;;;-145.69;57.16;52420.63;4936114;29;20219;-79
2023/12/18 05:13:07;;;;;;;0.60;0.60;;;;;;;-145.69;56.78;52390.91;4935574;29;20677;-79
2023/12/18 05:15:35;;;;;;;0.93;0.70;;;;;;;-145.69;57.15;52381.00;4919098;29;20697;-79
2023/12/18 05:18:01;;;;;;;0.50;0.50;;;;;;;-145.69;57.15;52394.88;4935901;29;20203;-80
2023/12/18 05:20:28;;;;;;;0.50;0.50;;;;;;;-145.69;57.36;52388.94;4935055;29;20665;-79
2023/12/18 05:22:54;;;;;;;0.67;0.67;;;;;;;-145.69;57.89;52379.03;4935972;29;20211;-79
2023/12/18 05:25:21;;;;;;;0.63;0.63;;;;;;;-145.69;58.00;52400.81;4935755;29;20231;-80
2023/12/18 05:27:47;;;;;;;0.70;0.70;;;;;;;-145.69;57.85;52400.81;4932847;29;20246;-79
2023/12/18 05:30:14;;;;;;;0.70;0.60;;;;;;;-145.69;57.78;52381.00;4935903;29;20219;-79
2023/12/18 05:32:43;;;;;;;0.70;0.70;;;;;;;-145.69;57.80;52408.75;4935667;29;20215;-79
2023/12/18 05:35:10;;;;;;;0.63;0.60;;;;;;;-145.69;58.10;52412.69;4935443;29;20345;-79
2023/12/18 05:37:36;;;;;;;2.80;1.50;;;;;;;-145.69;58.15;52400.81;4935861;29;20219;-79
2023/12/18 05:40:03;;;;;;;1.50;0.83;;;;;;;-145.69;58.29;52422.59;4935361;29;20196;-78
2023/12/18 05:42:29;;;;;;;0.60;0.60;;;;;;;-145.69;58.47;52381.00;4935694;29;20203;-79
2023/12/18 05:44:56;;;;;;;0.57;0.57;;;;;;;-145.69;58.08;52384.97;4935639;29;20690;-79
2023/12/18 05:47:23;;;;;;;0.60;0.60;;;;;;;-145.69;57.85;52408.75;4935377;29;20580;-80
2023/12/18 05:49:50;;;;;;;1.10;0.70;;;;;;;-145.69;57.36;52381.00;4935716;29;20210;-80
2023/12/18 05:52:18;;;;;;;2.83;0.77;;;;;;;-145.69;56.85;52384.97;4935645;29;20208;-79
2023/12/18 05:54:44;;;;;;;0.70;0.70;;;;;;;-145.69;56.69;52408.75;4935777;29;20674;-79
2023/12/18 05:57:14;;;;;;;3.37;0.80;;;;;;;-145.69;55.86;52400.81;4935478;29;20199;-79
2023/12/18 05:59:40;;;;;;;0.70;0.70;;;;;;;-145.69;56.07;52384.97;4935618;29;20196;-79
2023/12/18 06:02:07;;;;;;;0.77;0.70;;;;;;;-145.69;56.40;52392.91;4935477;29;20204;-80
2023/12/18 06:04:33;;;;;;;0.77;0.77;;;;;;;-145.69;56.72;52357.25;4935473;29;20231;-79
2023/12/18 06:07:01;;;;;;;0.80;0.60;;;;;;;-145.69;56.85;52373.09;4937288;29;20262;-81
2023/12/18 06:09:27;;;;;;;0.80;0.80;;;;;;;-145.69;56.83;52379.03;4938564;29;20235;-81
2023/12/18 06:11:54;;;;;;;0.70;0.70;;;;;;;-145.69;56.61;52388.94;4939195;29;20262;-82
2023/12/18 06:14:20;;;;;;;0.60;0.60;;;;;;;-145.69;56.64;52400.81;4938837;29;20568;-81
2023/12/18 06:16:47;;;;;;;0.83;0.80;;;;;;;-145.69;56.76;52377.06;4939253;29;20246;-81
2023/12/18 06:19:13;;;;;;;0.80;0.80;;;;;;;-145.69;56.70;52386.97;4939234;29;20263;-80
2023/12/18 06:21:41;;;;;;;0.93;0.80;;;;;;;-145.69;56.29;52369.13;4939159;29;20203;-81
2023/12/18 06:24:09;;;;;;;1.60;0.77;;;;;;;-145.69;56.63;52384.97;4939024;29;20231;-81
2023/12/18 06:26:35;;;;;;;1.53;1.00;;;;;;;-145.69;56.65;52369.13;4938777;29;20200;-80
2023/12/18 06:29:02;;;;;;;1.30;1.00;;;;;;;-145.69;56.53;52394.88;4938518;29;20203;-81
2023/12/18 06:31:28;;;;;;;1.03;0.90;;;;;;;-145.69;56.26;52392.91;4938973;29;20627;-80
2023/12/18 06:33:55;;;;;;;0.83;0.80;;;;;;;-145.69;55.78;52384.97;4938597;29;20207;-81
2023/12/18 06:36:21;;;;;;;0.60;0.60;;;;;;;-145.69;56.14;52400.81;4938791;29;20207;-81
2023/12/18 06:38:49;;;;;;;1.40;0.90;;;;;;;-145.69;56.90;52420.63;4938491;29;20216;-82
2023/12/18 06:41:17;;;;;;;5.70;0.90;;;;;;;-145.69;56.80;52400.81;4938444;29;20203;-81
2023/12/18 06:43:43;;;;;;;1.47;0.80;;;;;;;-145.69;56.57;52398.84;4938458;29;20227;-82
2023/12/18 06:46:10;;;;;;;1.23;0.70;;;;;;;-145.69;56.84;52398.84;4938720;29;20199;-79
2023/12/18 06:48:39;;;;;;;2.27;0.90;;;;;;;-145.69;56.66;52404.78;4938717;29;20254;-79
2023/12/18 06:51:05;;;;;;;0.97;0.73;;;;;;;-145.69;56.89;52377.06;4938526;29;20208;-79
2023/12/18 06:53:31;;;;;;;1.70;0.90;;;;;;;-145.69;57.16;52369.13;4938255;29;20207;-79
2023/12/18 06:55:58;;;;;;;0.80;0.80;;;;;;;-145.69;56.60;52410.72;4938397;29;20259;-80
2023/12/18 06:58:26;;;;;;;2.50;0.97;;;;;;;-145.69;57.15;52379.03;4938466;29;20203;-81
2023/12/18 07:00:52;;;;;;;0.70;0.70;;;;;;;-145.69;56.53;52384.97;4938433;29;20237;-80
2023/12/18 07:03:19;;;;;;;0.70;0.70;;;;;;;-145.69;56.24;52359.22;4938426;29;20215;-80
2023/12/18 07:05:46;;;;;;;2.20;1.03;;;;;;;-145.69;56.28;52369.13;4938181;29;20614;-80
2023/12/18 07:08:13;;;;;;;2.87;0.90;;;;;;;-145.69;55.93;52392.91;4938120;29;20263;-79
2023/12/18 07:10:39;;;;;;;1.30;0.90;;;;;;;-145.69;55.87;52377.06;4938041;29;20259;-80
2023/12/18 07:13:06;;;;;;;1.00;0.80;;;;;;;-145.69;55.64;52400.81;4938177;29;20199;-80
2023/12/18 07:15:34;;;;;;;1.40;1.00;;;;;;;-145.69;56.16;52386.97;4937733;29;20207;-79
2023/12/18 07:18:01;;;;;;;1.63;1.00;;;;;;;-145.69;55.97;52384.97;4936966;29;20655;-80
2023/12/18 07:20:27;;;;;;;2.40;1.10;;;;;;;-145.69;55.92;52402.78;4920829;29;20250;-80
2023/12/18 07:22:54;;;;;;;1.30;0.80;;;;;;;-145.69;55.62;52377.06;4934825;29;20784;-79
2023/12/18 07:25:20;;;;;;;1.90;1.23;;;;;;;-145.69;55.82;52394.88;4937429;29;20227;-80
2023/12/18 07:27:47;;;;;;;2.10;1.20;;;;;;;-145.69;55.96;52377.06;4938056;29;20575;-79
2023/12/18 07:30:15;;;;;;;2.93;1.67;;;;;;;-145.69;56.00;52392.91;4938000;29;20211;-79
2023/12/18 07:32:43;;;;;;;4.20;1.40;;;;;;;-145.69;55.90;52388.94;4936752;29;20204;-79
2023/12/18 07:35:09;;;;;;;6.10;1.23;;;;;;;-145.69;55.98;52381.00;4937126;29;20199;-79
2023/12/18 07:37:36;;;;;;;1.83;1.00;;;;;;;-145.69;56.13;52392.91;4937653;29;20239;-79
2023/12/18 07:40:03;;;;;;;2.60;1.10;;;;;;;-145.69;56.49;52373.09;4937305;29;20204;-80
2023/12/18 07:42:29;;;;;;;3.40;0.90;;;;;;;-145.69;56.02;52398.84;4933688;29;20620;-80
2023/12/18 07:44:56;;;;;;;2.00;1.00;;;;;;;-145.69;55.64;52398.84;4937435;29;20318;-80
2023/12/18 07:47:22;;;;;;;1.43;1.07;;;;;;;-145.69;55.97;52361.22;4937541;29;20211;-80
2023/12/18 07:49:49;;;;;;;0.80;0.80;;;;;;;-145.69;55.31;52394.88;4937418;29;20211;-80
2023/12/18 07:52:16;;;;;;;1.77;0.80;;;;;;;-145.69;55.19;52365.16;4936787;29;20203;-80
2023/12/18 07:54:43;;;;;;;1.10;0.80;;;;;;;-145.69;55.81;52392.91;4937342;29;20291;-81
2023/12/18 07:57:09;;;;;;;0.83;0.70;;;;;;;-145.69;55.55;52404.78;4936972;29;20203;-80
2023/12/18 07:59:39;;;;;;;0.77;0.70;;;;;;;-145.69;55.26;52392.91;4937421;29;20286;-80
2023/12/18 08:02:06;;;;;;;1.07;0.80;;;;;;;-145.69;54.30;52379.03;4936384;29;20195;-80
2023/12/18 08:04:33;;;;;;;0.97;0.80;;;;;;;-145.69;54.18;52361.22;4935858;29;20266;-80
2023/12/18 08:07:00;;;;;;;1.27;0.93;;;;;;;-145.69;53.59;52361.22;4919830;29;20207;-81
2023/12/18 08:09:27;;;;;;;1.10;0.90;;;;;;;-145.69;53.57;52363.19;4936865;29;20235;-80
2023/12/18 08:11:54;;;;;;;0.60;0.60;;;;;;;-145.69;53.78;52377.06;4936047;29;20242;-80
2023/12/18 08:14:20;;;;;;;0.73;0.73;;;;;;;-145.69;53.78;52349.31;4936970;29;20270;-80
2023/12/18 08:16:47;;;;;;;1.67;0.80;;;;;;;-145.69;54.00;52388.94;4936899;29;20203;-80
2023/12/18 08:19:13;;;;;;;0.60;0.60;;;;;;;-145.69;52.53;52381.00;4936820;29;20268;-81
2023/12/18 08:21:40;;;;;;;3.37;1.50;;;;;;;-145.69;53.78;52373.09;4936278;29;20202;-81
2023/12/18 08:24:08;;;;;;;0.80;0.80;;;;;;;-145.69;52.96;52388.94;4936296;29;20674;-80
2023/12/18 08:26:34;;;;;;;1.20;1.07;;;;;;;-145.69;52.83;52345.38;4936737;29;20231;-80
2023/12/18 08:29:01;;;;;;;1.80;1.17;;;;;;;-145.69;52.79;52369.13;4936761;29;20211;-80
2023/12/18 08:31:28;;;;;;;1.70;0.80;;;;;;;-145.69;52.40;52367.16;4936427;29;20199;-81
2023/12/18 08:33:54;;;;;;;1.10;0.90;;;;;;;-145.69;52.26;52329.53;4936215;29;20230;-81
2023/12/18 08:36:21;;;;;;;1.00;0.90;;;;;;;-145.69;52.35;52323.59;4936395;29;20203;-81
2023/12/18 08:38:47;;;;;;;0.60;0.60;;;;;;;-145.69;51.47;52359.22;4936740;29;20214;-80
2023/12/18 08:41:15;;;;;;;0.80;0.80;;;;;;;-145.69;52.10;52363.19;4936400;29;20270;-80
2023/12/18 08:43:43;;;;;;;0.97;0.70;;;;;;;-145.69;51.78;52392.91;4936203;29;20195;-80
2023/12/18 08:46:09;;;;;;;2.13;0.80;;;;;;;-145.69;52.19;52361.22;4936505;29;20231;-81
2023/12/18 08:48:35;;;;;;;0.60;0.60;;;;;;;-145.69;50.95;52335.47;4936198;29;20214;-81
2023/12/18 08:51:02;;;;;;;0.80;0.70;;;;;;;-145.69;51.33;52369.13;4936516;29;20199;-80
2023/12/18 08:53:28;;;;;;;0.90;0.90;;;;;;;-145.69;50.86;52343.38;4936131;29;20207;-80
2023/12/18 08:55:55;;;;;;;0.93;0.90;;;;;;;-145.69;51.43;52341.41;4936002;29;20207;-81
2023/12/18 08:58:25;;;;;;;0.80;0.80;;;;;;;-145.69;52.40;52388.94;4935936;29;20196;-80
2023/12/18 09:00:52;;;;;;;1.27;1.00;;;;;;;-145.69;51.80;52341.41;4935839;29;20563;-80
2023/12/18 09:03:19;;;;;;;0.53;0.53;;;;;;;-145.69;52.99;52363.19;4935364;29;20567;-81
2023/12/18 09:05:46;;;;;;;0.83;0.70;;;;;;;-145.69;53.65;52384.97;4935856;29;20271;-80
2023/12/18 09:08:13;;;;;;;0.60;0.60;;;;;;;-145.69;54.10;52345.38;4935632;29;20472;-80
2023/12/18 09:10:40;;;;;;;0.60;0.60;;;;;;;-145.69;53.81;52371.13;4935987;29;20208;-81
2023/12/18 09:13:06;;;;;;;0.70;0.63;;;;;;;-145.69;53.06;52377.06;4921976;29;20208;-81
2023/12/18 09:15:34;;;;;;;0.70;0.70;;;;;;;-145.69;52.55;52345.38;4919125;29;20204;-81
2023/12/18 09:18:00;;;;;;;5.00;1.43;;;;;;;-145.69;53.16;52357.25;4917103;29;20236;-80
2023/12/18 09:20:27;;;;;;;0.90;0.90;;;;;;;-145.69;53.09;52369.13;4916875;29;20208;-80
2023/12/18 09:22:53;;;;;;;0.60;0.60;;;;;;;-145.69;53.06;52333.47;4928921;29;20209;-81
2023/12/18 09:25:20;;;;;;;0.60;0.60;;;;;;;-145.69;52.60;52335.47;4935068;29;20231;-80
2023/12/18 09:27:46;;;;;;;0.67;0.43;;;;;;;-145.69;53.63;52337.44;4935898;29;20203;-80
2023/12/18 09:30:14;;;;;;;0.60;0.60;;;;;;;-145.69;53.20;52339.44;4935596;29;20608;-80
2023/12/18 09:32:41;;;;;;;0.60;0.60;;;;;;;-145.69;52.88;52325.56;4930108;29;20199;-79
2023/12/18 09:35:08;;;;;;;0.50;0.50;;;;;;;-145.69;52.38;52365.16;4935814;29;20259;-80
2023/12/18 09:37:35;;;;;;;0.60;0.60;;;;;;;-145.69;53.09;52341.41;4935511;29;20218;-79
2023/12/18 09:40:01;;;;;;;0.60;0.60;;;;;;;-145.69;52.82;52329.53;4935660;29;20210;-79
2023/12/18 09:42:27;;;;;;;0.63;0.60;;;;;;;-145.69;51.76;52311.69;4927041;29;20211;-80
2023/12/18 09:44:56;;;;;;;0.70;0.70;;;;;;;-145.69;51.95;52325.56;4916463;29;20220;-80
2023/12/18 09:47:23;;;;;;;0.77;0.77;;;;;;;-145.69;52.04;52351.31;4916729;29;20204;-80
2023/12/18 09:49:52;;;;;;;4.90;2.60;;;;;;;-145.69;52.89;52301.81;4916724;29;20240;-80
2023/12/18 09:52:22;;;;;;;8.20;5.03;;;;;;;-145.69;52.74;52329.53;4923323;29;20210;-80
2023/12/18 09:54:50;;;;;;;16.07;7.07;;;;;;;-145.69;54.73;52343.38;4935629;29;20590;-80
2023/12/18 09:57:19;;;;;;;21.70;9.07;;;;;;;-145.69;53.60;52329.53;4935330;29;20227;-79
2023/12/18 09:59:46;;;;;;;18.80;7.30;;;;;;;-145.69;53.68;52355.28;4935669;29;20230;-79
2023/12/18 10:02:13;;;;;;;28.17;10.10;;;;;;;-145.69;53.68;52345.38;4935077;29;20670;-79
2023/12/18 10:04:42;;;;;;;19.00;8.20;;;;;;;-145.69;53.57;52329.53;4934030;29;20199;-80
2023/12/18 10:07:10;;;;;;;17.40;7.70;;;;;;;-145.69;53.47;52323.59;4935281;29;20255;-80
2023/12/18 10:09:36;;;;;;;9.43;3.87;;;;;;;-145.69;51.69;52337.44;4934987;29;20702;-81
2023/12/18 10:12:03;;;;;;;8.63;3.70;;;;;;;-145.69;51.60;52329.53;4931323;29;20196;-80
2023/12/18 10:14:30;;;;;;;9.47;4.37;;;;;;;-145.69;51.29;52325.56;4916244;29;20727;-80
2023/12/18 10:16:57;;;;;;;7.67;3.80;;;;;;;-145.69;50.82;52357.25;4916509;29;20208;-80
2023/12/18 10:19:24;;;;;;;12.80;4.10;;;;;;;-145.69;51.05;52327.53;4916428;29;20204;-80
2023/12/18 10:21:51;;;;;;;7.47;3.70;;;;;;;-145.69;50.70;52365.16;4916596;29;20262;-79
2023/12/18 10:24:19;;;;;;;12.20;4.27;;;;;;;-145.69;50.75;52329.53;4933937;29;20207;-80
2023/12/18 10:26:47;;;;;;;9.93;4.00;;;;;;;-145.69;51.03;52333.47;4935070;29;20235;-80
2023/12/18 10:29:14;;;;;;;9.47;4.10;;;;;;;-145.69;50.92;52321.59;4935172;29;20690;-80
2023/12/18 10:31:40;;;;;;;6.90;3.70;;;;;;;-145.69;50.51;52309.72;4935074;29;20204;-80
2023/12/18 10:34:07;;;;;;;6.33;3.17;;;;;;;-145.69;50.51;52317.66;4934963;29;20661;-80
2023/12/18 10:36:34;;;;;;;10.90;3.77;;;;;;;-145.69;51.28;52323.59;4935075;29;20678;-80
2023/12/18 10:39:02;;;;;;;11.97;4.37;;;;;;;-145.69;51.05;52325.56;4935032;29;20299;-80
2023/12/18 10:41:37;;;;;;;11.17;5.37;;;;;;;-145.69;50.75;52311.69;4935199;29;20563;-79
2023/12/18 10:44:05;;;;;;;8.03;3.97;;;;;;;-145.69;51.03;52301.81;4923443;29;20208;-80
2023/12/18 10:46:33;;;;;;;10.13;4.50;;;;;;;-145.69;51.24;52317.66;4915543;29;20328;-80
2023/12/18 10:49:00;;;;;;;13.40;5.50;;;;;;;-145.69;51.53;52339.44;4915490;29;20604;-80
2023/12/18 10:51:27;;;;;;;14.17;5.70;;;;;;;-145.69;52.26;52335.47;4915857;29;20205;-80
2023/12/18 10:53:54;;;;;;;15.20;6.03;;;;;;;-145.69;51.98;52333.47;4934780;29;20214;-80
2023/12/18 10:56:22;;;;;;;11.60;4.67;;;;;;;-145.69;52.14;52335.47;4938060;29;20619;-80
2023/12/18 10:58:51;;;;;;;9.47;4.20;;;;;;;-145.69;52.09;52309.72;4938075;29;20207;-80
2023/12/18 11:01:19;;;;;;;7.37;4.10;;;;;;;-145.69;52.19;52285.97;4938104;29;20655;-80
2023/12/18 11:03:46;;;;;;;10.20;3.40;;;;;;;-145.69;51.65;52353.28;4937392;29;20204;-79
2023/12/18 11:06:14;;;;;;;5.83;3.13;;;;;;;-145.69;51.92;52351.31;4937805;29;20239;-81
2023/12/18 11:08:40;;;;;;;6.73;3.00;;;;;;;-145.69;51.08;52331.50;4937606;29;20239;-80
2023/12/18 11:11:08;;;;;;;4.97;2.87;;;;;;;-145.69;50.54;52331.50;4938080;29;20207;-80
2023/12/18 11:13:47;;;;;;;6.27;2.93;;;;;;;-145.69;50.09;52289.91;4937178;29;20292;-80
2023/12/18 11:16:26;;;;;;;5.30;3.10;;;;;;;-145.69;49.86;52333.47;4937505;29;20199;-79